createdAt,value
2023-01-21T00:01:18.948Z,29.22
2023-01-21T00:03:47.283Z,29.03
2023-01-21T00:06:16.140Z,28.91
2023-01-21T00:08:44.794Z,29.25
2023-01-21T00:11:15.460Z,29.51
2023-01-21T00:13:44.663Z,29.40
2023-01-21T00:16:13.971Z,29.39
2023-01-21T00:18:43.185Z,29.18
2023-01-21T00:21:11.323Z,29.40
2023-01-21T00:23:39.820Z,29.66
2023-01-21T00:26:11.058Z,29.36
2023-01-21T00:28:39.263Z,29.69
2023-01-21T00:31:09.022Z,29.49
2023-01-21T00:33:38.290Z,29.50
2023-01-21T00:36:13.239Z,29.46
2023-01-21T00:38:41.377Z,29.70
2023-01-21T00:41:13.036Z,29.78
2023-01-21T00:43:42.016Z,29.92
2023-01-21T00:46:11.522Z,30.04
2023-01-21T00:48:39.994Z,30.38
2023-01-21T00:51:09.035Z,29.98
2023-01-21T00:53:39.545Z,30.00
2023-01-21T00:56:11.757Z,30.18
2023-01-21T00:58:41.821Z,30.13
2023-01-21T01:01:18.286Z,30.17
2023-01-21T01:03:48.205Z,30.14
2023-01-21T01:06:22.413Z,30.34
2023-01-21T01:08:50.926Z,30.23
2023-01-21T01:11:19.617Z,30.17
2023-01-21T01:13:48.108Z,30.42
2023-01-21T01:16:16.868Z,30.42
2023-01-21T01:18:45.733Z,30.63
2023-01-21T01:21:20.860Z,30.58
2023-01-21T01:23:50.490Z,30.53
2023-01-21T01:26:20.422Z,30.55
2023-01-21T01:28:49.261Z,30.40
2023-01-21T01:31:19.356Z,30.41
2023-01-21T01:33:48.351Z,30.45
2023-01-21T01:36:20.272Z,30.35
2023-01-21T01:38:48.496Z,30.64
2023-01-21T01:41:20.980Z,30.81
2023-01-21T01:43:51.882Z,30.93
2023-01-21T01:46:21.185Z,30.75
2023-01-21T01:48:56.821Z,30.76
2023-01-21T01:51:57.733Z,30.70
2023-01-21T01:54:39.950Z,30.51
2023-01-21T01:57:12.925Z,30.52
2023-01-21T01:59:43.765Z,30.56
2023-01-21T02:02:16.090Z,30.41
2023-01-21T02:04:51.389Z,31.08
2023-01-21T02:07:23.743Z,30.90
2023-01-21T02:09:53.674Z,30.80
2023-01-21T02:12:23.642Z,30.83
2023-01-21T02:14:51.830Z,30.64
2023-01-21T02:17:48.819Z,30.76
2023-01-21T02:20:29.255Z,30.80
2023-01-21T02:23:12.173Z,30.88
2023-01-21T02:26:37.287Z,30.68
2023-01-21T02:29:19.290Z,30.82
2023-01-21T02:32:18.797Z,30.92
2023-01-21T02:34:55.162Z,30.91
2023-01-21T02:37:43.015Z,31.05
2023-01-21T02:40:25.859Z,31.14
2023-01-21T02:43:17.983Z,31.17
2023-01-21T02:46:00.083Z,31.21
2023-01-21T02:48:35.382Z,31.22
2023-01-21T02:51:05.339Z,31.06
2023-01-21T02:53:35.998Z,31.25
2023-01-21T02:56:12.823Z,30.99
2023-01-21T02:58:45.669Z,31.40
2023-01-21T03:01:42.879Z,31.13
2023-01-21T03:04:34.982Z,31.12
2023-01-21T03:07:13.642Z,31.11
2023-01-21T03:09:41.960Z,30.96
2023-01-21T03:12:35.589Z,30.70
2023-01-21T03:15:26.045Z,30.87
2023-01-21T03:18:10.409Z,30.99
2023-01-21T03:20:43.827Z,30.89
2023-01-21T03:23:35.106Z,30.76
2023-01-21T03:26:05.872Z,30.74
2023-01-21T03:28:39.097Z,30.87
2023-01-21T03:31:19.690Z,30.71
2023-01-21T03:33:52.983Z,30.83
2023-01-21T03:36:31.971Z,30.82
2023-01-21T03:39:07.831Z,30.91
2023-01-21T03:41:40.000Z,30.85
2023-01-21T03:44:08.571Z,30.82
2023-01-21T03:46:49.703Z,30.84
2023-01-21T03:49:42.195Z,30.97
2023-01-21T03:52:13.874Z,31.07
2023-01-21T03:54:42.049Z,30.90
2023-01-21T03:57:10.254Z,31.00
2023-01-21T03:59:38.514Z,30.82
2023-01-21T04:02:06.684Z,30.77
2023-01-21T04:04:35.661Z,30.82
2023-01-21T04:07:04.354Z,30.72
2023-01-21T04:09:32.584Z,30.84
2023-01-21T04:12:00.708Z,30.64
2023-01-21T04:14:28.909Z,30.72
2023-01-21T04:16:57.122Z,30.76
2023-01-21T04:19:25.342Z,30.68
2023-01-21T04:21:54.155Z,30.64
2023-01-21T04:24:22.475Z,30.66
2023-01-21T04:26:50.927Z,30.96
2023-01-21T04:29:19.278Z,30.58
2023-01-21T04:31:47.628Z,30.69
2023-01-21T04:34:15.834Z,30.70
2023-01-21T04:36:44.191Z,30.78
2023-01-21T04:39:12.572Z,30.96
2023-01-21T04:41:40.769Z,30.88
2023-01-21T04:44:09.273Z,30.62
2023-01-21T04:46:37.584Z,30.83
2023-01-21T04:49:05.711Z,30.83
2023-01-21T04:51:33.967Z,31.07
2023-01-21T04:54:02.183Z,30.96
2023-01-21T04:56:30.303Z,30.71
2023-01-21T04:58:59.028Z,30.65
2023-01-21T05:01:27.382Z,30.74
2023-01-21T05:03:55.721Z,30.78
2023-01-21T05:06:24.255Z,30.62
2023-01-21T05:08:52.413Z,30.81
2023-01-21T05:11:21.069Z,30.65
2023-01-21T05:13:49.236Z,30.56
2023-01-21T05:16:17.414Z,30.43
2023-01-21T05:18:46.750Z,30.43
2023-01-21T05:21:15.405Z,30.49
2023-01-21T05:23:43.625Z,30.52
2023-01-21T05:26:12.360Z,30.36
2023-01-21T05:28:40.919Z,30.39
2023-01-21T05:31:09.202Z,30.21
2023-01-21T05:33:37.878Z,30.38
2023-01-21T05:36:06.901Z,30.47
2023-01-21T05:38:35.028Z,30.58
2023-01-21T05:41:04.194Z,30.60
2023-01-21T05:43:32.427Z,30.37
2023-01-21T05:46:01.036Z,29.90
2023-01-21T05:48:29.163Z,30.26
2023-01-21T05:50:58.475Z,29.84
2023-01-21T05:53:27.562Z,29.77
2023-01-21T05:55:56.818Z,29.54
2023-01-21T05:58:26.271Z,29.31
2023-01-21T06:00:57.869Z,29.26
2023-01-21T06:03:26.410Z,29.16
2023-01-21T06:05:54.646Z,29.11
2023-01-21T06:08:23.259Z,29.08
2023-01-21T06:10:53.818Z,28.80
2023-01-21T06:13:23.247Z,28.97
2023-01-21T06:15:55.366Z,28.91
2023-01-21T06:18:24.361Z,28.86
2023-01-21T06:20:52.537Z,28.89
2023-01-21T06:23:20.942Z,28.78
2023-01-21T06:25:49.145Z,28.81
2023-01-21T06:28:17.719Z,28.73
2023-01-21T06:30:47.203Z,28.90
2023-01-21T06:33:15.528Z,28.75
2023-01-21T06:35:43.709Z,28.61
2023-01-21T06:38:11.994Z,28.73
2023-01-21T06:40:40.907Z,28.69
2023-01-21T06:43:09.259Z,28.65
2023-01-21T06:45:37.519Z,28.54
2023-01-21T06:48:05.855Z,28.48
2023-01-21T06:50:34.001Z,28.53
2023-01-21T06:53:02.537Z,28.41
2023-01-21T06:55:30.910Z,28.59
2023-01-21T06:58:00.369Z,28.64
2023-01-21T07:00:28.665Z,28.52
2023-01-21T07:02:57.963Z,28.36
2023-01-21T07:05:28.146Z,28.37
2023-01-21T07:07:57.533Z,28.28
2023-01-21T07:10:26.059Z,28.28
2023-01-21T07:12:54.260Z,28.30
2023-01-21T07:15:22.942Z,28.29
2023-01-21T07:17:51.247Z,28.19
2023-01-21T07:20:19.786Z,28.23
2023-01-21T07:22:49.058Z,28.20
2023-01-21T07:25:17.739Z,28.12
2023-01-21T07:27:46.860Z,28.18
2023-01-21T07:30:18.325Z,27.99
2023-01-21T07:32:47.614Z,28.32
2023-01-21T07:35:17.033Z,28.30
2023-01-21T07:37:45.475Z,28.23
2023-01-21T07:40:13.919Z,28.21
2023-01-21T07:42:42.228Z,28.19
2023-01-21T07:45:10.709Z,28.18
2023-01-21T07:47:38.860Z,28.19
2023-01-21T07:50:07.932Z,27.71
2023-01-21T07:52:36.326Z,26.41
2023-01-21T07:55:05.149Z,24.77
2023-01-21T07:57:34.521Z,23.82
2023-01-21T08:00:02.828Z,22.56
2023-01-21T08:02:34.962Z,22.14
2023-01-21T08:05:03.416Z,20.73
2023-01-21T08:07:32.621Z,19.67
2023-01-21T08:10:01.677Z,18.76
2023-01-21T08:12:29.758Z,17.81
2023-01-21T08:14:58.062Z,16.38
2023-01-21T08:17:26.283Z,16.04
2023-01-21T08:19:54.911Z,15.38
2023-01-21T08:22:24.176Z,13.98
2023-01-21T08:24:52.447Z,13.69
2023-01-21T08:27:20.596Z,13.33
2023-01-21T08:29:49.112Z,13.49
2023-01-21T08:32:19.387Z,13.17
2023-01-21T08:34:48.597Z,12.71
2023-01-21T08:37:17.109Z,12.83
2023-01-21T08:39:45.390Z,11.94
2023-01-21T08:42:13.633Z,11.71
2023-01-21T08:44:41.790Z,10.55
2023-01-21T08:47:10.566Z,10.27
2023-01-21T08:49:38.960Z,10.13
2023-01-21T08:52:07.598Z,9.40
2023-01-21T08:54:36.250Z,9.13
2023-01-21T08:57:04.428Z,8.82
2023-01-21T08:59:32.493Z,8.72
2023-01-21T09:02:00.995Z,8.60
2023-01-21T09:04:29.489Z,8.34
2023-01-21T09:06:57.698Z,8.09
2023-01-21T09:09:26.717Z,7.82
2023-01-21T09:11:55.287Z,7.88
2023-01-21T09:14:23.580Z,7.62
2023-01-21T09:16:51.882Z,7.40
2023-01-21T09:19:20.095Z,7.15
2023-01-21T09:21:48.287Z,6.95
2023-01-21T09:24:16.706Z,6.80
2023-01-21T09:26:45.037Z,6.67
2023-01-21T09:29:13.381Z,6.95
2023-01-21T09:31:41.766Z,6.92
2023-01-21T09:34:11.036Z,7.25
2023-01-21T09:36:39.712Z,7.20
2023-01-21T09:39:08.849Z,7.30
2023-01-21T09:41:43.573Z,7.40
2023-01-21T09:44:24.015Z,7.43
2023-01-21T09:46:56.141Z,7.50
2023-01-21T09:49:56.499Z,7.27
2023-01-21T09:52:46.478Z,7.38
2023-01-21T09:55:25.923Z,7.21
2023-01-21T09:58:41.840Z,7.39
2023-01-21T10:01:34.557Z,7.91
2023-01-21T10:04:40.632Z,9.03
2023-01-21T10:07:22.815Z,10.17
2023-01-21T10:10:26.431Z,10.55
2023-01-21T10:13:37.679Z,11.05
2023-01-21T10:16:31.487Z,11.71
2023-01-21T10:19:07.151Z,11.69
2023-01-21T10:21:45.660Z,11.67
2023-01-21T10:24:31.467Z,11.89
2023-01-21T10:27:00.663Z,12.14
2023-01-21T10:29:29.119Z,11.90
2023-01-21T10:32:05.175Z,12.42
2023-01-21T10:34:57.489Z,12.88
2023-01-21T10:37:30.969Z,13.00
2023-01-21T10:40:21.757Z,12.75
2023-01-21T10:43:03.757Z,12.27
2023-01-21T10:45:31.937Z,12.85
2023-01-21T10:48:10.614Z,12.80
2023-01-21T10:51:23.976Z,12.77
2023-01-21T10:54:07.453Z,12.91
2023-01-21T10:56:44.763Z,13.24
2023-01-21T10:59:20.792Z,13.80
2023-01-21T11:02:03.616Z,14.45
2023-01-21T11:04:33.144Z,15.36
2023-01-21T11:07:04.405Z,15.31
2023-01-21T11:09:37.661Z,15.46
2023-01-21T11:12:06.395Z,15.27
2023-01-21T11:14:34.825Z,14.95
2023-01-21T11:17:04.555Z,14.72
2023-01-21T11:19:32.869Z,14.94
2023-01-21T11:22:16.347Z,14.74
2023-01-21T11:24:50.631Z,14.60
2023-01-21T11:27:23.649Z,14.54
2023-01-21T11:29:52.097Z,14.64
2023-01-21T11:32:23.285Z,14.31
2023-01-21T11:35:00.866Z,14.24
2023-01-21T11:37:31.753Z,15.14
2023-01-21T11:40:07.644Z,15.87
2023-01-21T11:42:47.728Z,15.46
2023-01-21T11:45:33.147Z,15.18
2023-01-21T11:48:02.716Z,15.09
2023-01-21T11:50:36.210Z,15.33
2023-01-21T11:53:07.195Z,15.72
2023-01-21T11:55:45.653Z,16.16
2023-01-21T11:58:32.993Z,16.17
2023-01-21T12:01:05.937Z,16.17
2023-01-21T12:03:50.142Z,16.34
2023-01-21T12:06:22.148Z,16.56
2023-01-21T12:08:53.693Z,17.43
2023-01-21T12:11:25.544Z,17.15
2023-01-21T12:14:04.928Z,17.76
2023-01-21T12:16:59.547Z,18.41
2023-01-21T12:19:49.332Z,18.80
2023-01-21T12:22:33.006Z,19.64
2023-01-21T12:25:23.276Z,19.86
2023-01-21T12:28:00.612Z,20.24
2023-01-21T12:30:31.645Z,20.32
2023-01-21T12:33:12.968Z,20.44
2023-01-21T12:35:55.525Z,20.37
2023-01-21T12:38:45.055Z,20.47
2023-01-21T12:41:18.816Z,20.58
2023-01-21T12:43:52.562Z,20.83
2023-01-21T12:46:28.144Z,21.01
2023-01-21T12:49:06.350Z,21.10
2023-01-21T12:51:42.634Z,20.91
2023-01-21T12:54:36.760Z,20.72
2023-01-21T12:57:25.860Z,20.67
2023-01-21T13:00:14.283Z,20.84
2023-01-21T13:02:57.158Z,21.13
2023-01-21T13:06:04.087Z,20.81
2023-01-21T13:08:40.194Z,21.10
2023-01-21T13:11:20.464Z,21.45
2023-01-21T13:14:09.348Z,21.43
2023-01-21T13:16:49.084Z,20.97
2023-01-21T13:19:17.357Z,21.30
2023-01-21T13:22:14.861Z,21.20
2023-01-21T13:25:12.806Z,21.47
2023-01-21T13:27:55.372Z,21.75
2023-01-21T13:30:39.901Z,21.27
2023-01-21T13:33:46.107Z,21.42
2023-01-21T13:36:41.449Z,21.27
2023-01-21T13:39:44.482Z,21.69
2023-01-21T13:42:28.791Z,21.45
2023-01-21T13:45:25.347Z,21.67
2023-01-21T13:48:05.207Z,22.10
2023-01-21T13:51:07.449Z,22.15
2023-01-21T13:54:02.298Z,22.23
2023-01-21T13:56:50.219Z,21.84
2023-01-21T13:59:51.175Z,22.06
2023-01-21T14:02:46.212Z,22.04
2023-01-21T14:05:32.798Z,21.88
2023-01-21T14:08:33.563Z,22.21
2023-01-21T14:11:26.899Z,22.30
2023-01-21T14:14:47.161Z,22.29
2023-01-21T14:17:38.830Z,22.20
2023-01-21T14:20:31.326Z,22.59
2023-01-21T14:23:28.023Z,23.04
2023-01-21T14:26:18.216Z,23.23
2023-01-21T14:29:13.487Z,22.84
2023-01-21T14:31:47.768Z,23.03
2023-01-21T14:34:29.906Z,22.08
2023-01-21T14:37:16.176Z,22.21
2023-01-21T14:40:01.384Z,23.28
2023-01-21T14:42:45.584Z,22.58
2023-01-21T14:45:16.566Z,22.15
2023-01-21T14:47:54.640Z,22.40
2023-01-21T14:50:49.537Z,22.35
2023-01-21T14:53:26.406Z,21.72
2023-01-21T14:56:19.240Z,22.11
2023-01-21T14:59:00.439Z,22.01
2023-01-21T15:01:30.721Z,22.03
2023-01-21T15:04:03.425Z,22.28
2023-01-21T15:06:36.364Z,22.36
2023-01-21T15:09:06.150Z,22.49
2023-01-21T15:11:41.239Z,22.83
2023-01-21T15:14:12.128Z,23.56
2023-01-21T15:16:42.731Z,23.05
2023-01-21T15:19:14.096Z,22.80
2023-01-21T15:21:59.301Z,22.86
2023-01-21T15:24:39.528Z,22.89
2023-01-21T15:27:25.251Z,23.24
2023-01-21T15:29:59.234Z,23.24
2023-01-21T15:32:38.483Z,23.43
2023-01-21T15:35:33.302Z,23.45
2023-01-21T15:38:13.085Z,23.15
2023-01-21T15:40:48.440Z,22.90
2023-01-21T15:43:24.837Z,23.08
2023-01-21T15:46:02.142Z,22.88
2023-01-21T15:48:53.836Z,22.74
2023-01-21T15:51:49.779Z,22.75
2023-01-21T15:54:42.978Z,22.56
2023-01-21T15:57:42.266Z,22.04
2023-01-21T16:00:46.221Z,22.34
2023-01-21T16:03:27.742Z,22.58
2023-01-21T16:06:13.996Z,22.15
2023-01-21T16:09:14.977Z,21.99
2023-01-21T16:12:16.052Z,22.48
2023-01-21T16:15:15.984Z,22.14
2023-01-21T16:18:10.076Z,22.02
2023-01-21T16:20:43.959Z,22.85
2023-01-21T16:23:15.803Z,23.35
2023-01-21T16:25:49.620Z,23.23
2023-01-21T16:28:19.467Z,23.19
2023-01-21T16:30:57.023Z,23.03
2023-01-21T16:33:25.813Z,23.26
2023-01-21T16:36:01.596Z,23.34
2023-01-21T16:38:31.976Z,23.40
2023-01-21T16:41:12.509Z,23.02
2023-01-21T16:43:59.773Z,22.89
2023-01-21T16:46:34.954Z,22.52
2023-01-21T16:49:11.316Z,22.49
2023-01-21T16:51:42.360Z,22.28
2023-01-21T16:54:19.890Z,21.87
2023-01-21T16:57:15.240Z,21.98
2023-01-21T16:59:45.572Z,22.00
2023-01-21T17:02:24.630Z,21.82
2023-01-21T17:05:00.723Z,21.94
2023-01-21T17:07:41.795Z,21.74
2023-01-21T17:10:20.998Z,22.02
2023-01-21T17:12:55.222Z,21.93
2023-01-21T17:15:35.294Z,21.95
2023-01-21T17:18:06.290Z,22.35
2023-01-21T17:20:43.628Z,22.11
2023-01-21T17:23:31.938Z,22.19
2023-01-21T17:26:24.345Z,22.31
2023-01-21T17:29:11.126Z,22.46
2023-01-21T17:31:41.433Z,22.39
2023-01-21T17:34:15.735Z,22.47
2023-01-21T17:36:45.778Z,22.43
2023-01-21T17:39:14.330Z,22.49
2023-01-21T17:41:46.157Z,22.70
2023-01-21T17:44:21.043Z,22.55
2023-01-21T17:46:52.621Z,22.87
2023-01-21T17:49:25.878Z,22.72
2023-01-21T17:51:55.458Z,23.03
2023-01-21T17:54:26.661Z,22.91
2023-01-21T17:57:00.550Z,23.16
2023-01-21T17:59:37.185Z,23.15
2023-01-21T18:02:10.932Z,23.27
2023-01-21T18:04:40.880Z,23.34
2023-01-21T18:07:29.069Z,23.58
2023-01-21T18:10:01.208Z,23.51
2023-01-21T18:12:29.531Z,23.41
2023-01-21T18:14:57.722Z,23.80
2023-01-21T18:17:26.406Z,23.71
2023-01-21T18:19:57.037Z,23.69
2023-01-21T18:22:29.013Z,24.14
2023-01-21T18:24:57.287Z,23.92
2023-01-21T18:27:25.963Z,23.92
2023-01-21T18:29:56.465Z,24.32
2023-01-21T18:32:25.074Z,24.26
2023-01-21T18:34:53.287Z,24.20
2023-01-21T18:37:21.476Z,24.24
2023-01-21T18:39:50.054Z,24.32
2023-01-21T18:42:18.894Z,24.29
2023-01-21T18:44:47.032Z,24.58
2023-01-21T18:47:18.533Z,24.83
2023-01-21T18:49:46.641Z,24.76
2023-01-21T18:52:17.006Z,24.81
2023-01-21T18:54:46.072Z,24.83
2023-01-21T18:57:21.647Z,25.02
2023-01-21T18:59:50.082Z,25.01
2023-01-21T19:02:20.957Z,24.95
2023-01-21T19:04:49.349Z,25.03
2023-01-21T19:07:20.085Z,25.14
2023-01-21T19:09:48.908Z,25.25
2023-01-21T19:12:21.308Z,25.08
2023-01-21T19:14:50.202Z,25.22
2023-01-21T19:17:27.186Z,25.15
2023-01-21T19:19:58.084Z,24.84
2023-01-21T19:22:26.282Z,25.48
2023-01-21T19:24:55.863Z,25.88
2023-01-21T19:27:30.127Z,25.89
2023-01-21T19:29:58.445Z,25.88
2023-01-21T19:32:29.201Z,25.74
2023-01-21T19:34:58.035Z,25.68
2023-01-21T19:37:27.975Z,25.89
2023-01-21T19:39:56.943Z,25.88
2023-01-21T19:42:25.095Z,26.24
2023-01-21T19:44:53.637Z,25.89
2023-01-21T19:47:34.659Z,26.00
2023-01-21T19:50:03.254Z,25.98
2023-01-21T19:52:35.050Z,26.23
2023-01-21T19:55:06.667Z,26.22
2023-01-21T19:57:36.402Z,26.25
2023-01-21T20:00:16.913Z,26.26
2023-01-21T20:02:50.938Z,26.11
2023-01-21T20:05:23.016Z,25.59
2023-01-21T20:07:54.553Z,25.33
2023-01-21T20:10:29.611Z,25.52
2023-01-21T20:13:13.788Z,26.06
2023-01-21T20:15:45.517Z,25.72
2023-01-21T20:18:28.022Z,25.64
2023-01-21T20:20:57.754Z,25.62
2023-01-21T20:23:27.208Z,25.73
2023-01-21T20:25:58.900Z,26.11
2023-01-21T20:28:41.589Z,25.92
2023-01-21T20:31:12.371Z,25.89
2023-01-21T20:33:41.527Z,26.07
2023-01-21T20:36:20.133Z,25.93
2023-01-21T20:38:48.883Z,25.98
2023-01-21T20:41:17.083Z,25.73
2023-01-21T20:43:45.546Z,25.09
2023-01-21T20:46:27.722Z,24.64
2023-01-21T20:48:58.256Z,23.44
2023-01-21T20:51:31.254Z,22.79
2023-01-21T20:53:59.659Z,21.56
2023-01-21T20:56:32.108Z,20.90
2023-01-21T20:59:01.224Z,21.07
2023-01-21T21:01:30.930Z,21.20
2023-01-21T21:03:59.695Z,21.03
2023-01-21T21:06:29.410Z,20.69
2023-01-21T21:08:57.989Z,19.90
2023-01-21T21:11:26.225Z,19.69
2023-01-21T21:13:55.019Z,19.21
2023-01-21T21:16:29.228Z,19.05
2023-01-21T21:18:58.793Z,18.27
2023-01-21T21:21:28.159Z,16.62
2023-01-21T21:23:56.668Z,16.10
2023-01-21T21:26:27.830Z,15.79
2023-01-21T21:28:56.443Z,16.02
2023-01-21T21:31:26.235Z,15.61
2023-01-21T21:33:59.879Z,14.88
2023-01-21T21:36:30.577Z,14.79
2023-01-21T21:38:59.109Z,13.90
2023-01-21T21:41:27.892Z,14.59
2023-01-21T21:43:56.490Z,14.83
2023-01-21T21:46:24.871Z,14.25
2023-01-21T21:48:53.763Z,13.85
2023-01-21T21:51:22.425Z,14.33
2023-01-21T21:53:51.557Z,14.28
2023-01-21T21:56:22.804Z,13.93
2023-01-21T21:58:51.780Z,13.83
2023-01-21T22:01:21.055Z,14.29
2023-01-21T22:03:50.464Z,13.57
2023-01-21T22:06:21.160Z,13.90
2023-01-21T22:08:49.903Z,13.75
2023-01-21T22:11:20.627Z,14.12
2023-01-21T22:13:50.866Z,13.88
2023-01-21T22:16:27.519Z,13.84
2023-01-21T22:18:57.678Z,14.28
2023-01-21T22:21:31.249Z,14.13
2023-01-21T22:24:00.647Z,13.06
2023-01-21T22:26:29.972Z,13.52
2023-01-21T22:29:00.044Z,13.23
2023-01-21T22:31:31.353Z,12.77
2023-01-21T22:34:01.049Z,12.70
2023-01-21T22:36:30.611Z,12.29
2023-01-21T22:38:59.684Z,12.26
2023-01-21T22:41:28.964Z,12.48
2023-01-21T22:43:57.974Z,12.31
2023-01-21T22:46:28.530Z,12.53
2023-01-21T22:48:57.907Z,12.11
2023-01-21T22:51:27.024Z,12.61
2023-01-21T22:53:56.158Z,12.62
2023-01-21T22:56:44.991Z,12.25
2023-01-21T22:59:14.576Z,12.11
2023-01-21T23:01:43.009Z,12.19
2023-01-21T23:04:14.894Z,12.47
2023-01-21T23:06:43.693Z,12.34
2023-01-21T23:09:15.608Z,12.60
2023-01-21T23:11:44.222Z,12.33
2023-01-21T23:14:12.369Z,12.54
2023-01-21T23:16:41.463Z,12.39
2023-01-21T23:19:10.042Z,12.68
2023-01-21T23:21:38.176Z,12.46
2023-01-21T23:24:07.692Z,12.37
2023-01-21T23:26:37.014Z,12.25
2023-01-21T23:29:05.304Z,12.24
2023-01-21T23:31:33.563Z,12.27
2023-01-21T23:34:02.505Z,12.21
2023-01-21T23:36:31.311Z,12.10
2023-01-21T23:39:00.723Z,12.36
2023-01-21T23:41:29.502Z,12.38
2023-01-21T23:44:02.109Z,12.39
2023-01-21T23:46:30.697Z,12.38
2023-01-21T23:48:59.567Z,12.57
2023-01-21T23:51:28.132Z,12.60
2023-01-21T23:53:57.030Z,12.68
2023-01-21T23:56:26.168Z,12.76
2023-01-21T23:58:54.809Z,12.88
